createdAt,value
2016-03-14T00:00:44.901Z,974.21
2016-03-14T00:01:44.904Z,974.19
2016-03-14T00:02:44.907Z,974.25
2016-03-14T00:03:44.894Z,974.26
2016-03-14T00:04:44.897Z,974.25
2016-03-14T00:05:44.900Z,974.25
2016-03-14T00:06:44.902Z,974.25
2016-03-14T00:07:44.905Z,974.27
2016-03-14T00:08:44.892Z,974.2
2016-03-14T00:09:44.895Z,974.25
2016-03-14T00:10:44.897Z,974.22
2016-03-14T00:11:44.884Z,974.21
2016-03-14T00:12:44.887Z,974.24
2016-03-14T00:13:44.889Z,974.24
2016-03-14T00:14:44.892Z,974.3
2016-03-14T00:15:44.880Z,974.2
2016-03-14T00:16:44.882Z,974.23
2016-03-14T00:17:44.886Z,974.14
2016-03-14T00:18:44.872Z,974.16
2016-03-14T00:19:44.875Z,974.18
2016-03-14T00:20:44.877Z,974.16
2016-03-14T00:21:44.880Z,974.12
2016-03-14T00:22:44.882Z,974.2
2016-03-14T00:23:44.870Z,974.2
2016-03-14T00:24:44.873Z,974.19
2016-03-14T00:25:44.875Z,974.19
2016-03-14T00:26:44.862Z,974.18
2016-03-14T00:27:44.865Z,974.26
2016-03-14T00:28:44.868Z,974.2
2016-03-14T00:29:44.854Z,974.22
2016-03-14T00:30:44.857Z,974.19
2016-03-14T00:31:44.860Z,974.2
2016-03-14T00:32:44.862Z,974.26
2016-03-14T00:33:44.865Z,974.21
2016-03-14T00:34:44.853Z,974.23
2016-03-14T00:35:44.855Z,974.21
2016-03-14T00:36:44.843Z,974.23
2016-03-14T00:37:44.845Z,974.19
2016-03-14T00:38:44.848Z,974.16
2016-03-14T00:39:44.850Z,974.19
2016-03-14T00:40:44.853Z,974.17
2016-03-14T00:41:44.839Z,974.18
2016-03-14T00:42:44.842Z,974.21
2016-03-14T00:43:44.845Z,974.21
2016-03-14T00:44:44.848Z,974.13
2016-03-14T00:45:44.850Z,974.15
2016-03-14T00:46:44.853Z,974.07
2016-03-14T00:47:44.841Z,974.11
2016-03-14T00:48:44.827Z,974.1
2016-03-14T00:49:44.830Z,974.13
2016-03-14T00:50:44.833Z,974.12
2016-03-14T00:51:44.835Z,974.14
2016-03-14T00:52:44.838Z,974.12
2016-03-14T00:53:44.826Z,974.12
2016-03-14T00:54:44.828Z,974.1
2016-03-14T00:55:44.831Z,974.12
2016-03-14T00:56:44.818Z,974.07
2016-03-14T00:57:44.821Z,974.05
2016-03-14T00:58:44.817Z,974.02
2016-03-14T00:59:44.811Z,974.04
2016-03-14T01:00:44.814Z,974.02
2016-03-14T01:01:44.809Z,974.04
2016-03-14T01:02:44.812Z,973.98
2016-03-14T01:03:44.815Z,974.04
2016-03-14T01:04:44.817Z,974
2016-03-14T01:05:44.805Z,974
2016-03-14T01:06:44.823Z,974.02
2016-03-14T01:07:44.810Z,974.03
2016-03-14T01:08:44.798Z,973.99
2016-03-14T01:09:44.956Z,973.96
2016-03-14T01:10:44.803Z,973.96
2016-03-14T01:11:44.805Z,973.95
2016-03-14T01:12:44.793Z,973.97
2016-03-14T01:13:44.796Z,973.93
2016-03-14T01:14:44.798Z,973.94
2016-03-14T01:15:44.785Z,973.91
2016-03-14T01:16:44.787Z,973.9
2016-03-14T01:17:44.790Z,973.94
2016-03-14T01:18:44.794Z,973.94
2016-03-14T01:19:44.780Z,973.94
2016-03-14T01:20:44.782Z,973.93
2016-03-14T01:21:44.785Z,973.89
2016-03-14T01:22:44.788Z,973.86
2016-03-14T01:23:44.790Z,973.9
2016-03-14T01:24:44.778Z,973.91
2016-03-14T01:25:44.781Z,973.84
2016-03-14T01:26:44.783Z,973.84
2016-03-14T01:27:44.770Z,973.88
2016-03-14T01:28:44.773Z,973.82
2016-03-14T01:29:44.776Z,973.89
2016-03-14T01:30:44.779Z,973.86
2016-03-14T01:31:44.765Z,973.88
2016-03-14T01:32:44.768Z,973.89
2016-03-14T01:33:44.755Z,973.88
2016-03-14T01:34:44.758Z,973.92
2016-03-14T01:35:44.761Z,973.88
2016-03-14T01:36:44.763Z,973.88
2016-03-14T01:37:44.750Z,973.9
2016-03-14T01:38:44.753Z,973.87
2016-03-14T01:39:44.772Z,973.89
2016-03-14T01:40:44.758Z,973.9
2016-03-14T01:41:44.761Z,973.83
2016-03-14T01:42:44.749Z,973.8
2016-03-14T01:43:44.751Z,973.8
2016-03-14T01:44:44.738Z,973.84
2016-03-14T01:45:44.757Z,973.76
2016-03-14T01:46:44.743Z,973.77
2016-03-14T01:47:44.746Z,973.75
2016-03-14T01:48:44.733Z,973.75
2016-03-14T01:49:44.735Z,973.72
2016-03-14T01:50:44.738Z,973.73
2016-03-14T01:51:44.741Z,973.74
2016-03-14T01:52:44.728Z,973.71
2016-03-14T01:53:44.731Z,973.74
2016-03-14T01:54:44.733Z,973.69
2016-03-14T01:55:44.721Z,973.76
2016-03-14T01:56:44.723Z,973.68
2016-03-14T01:57:44.726Z,973.66
2016-03-14T01:58:44.729Z,973.64
2016-03-14T01:59:44.715Z,973.64
2016-03-14T02:00:44.718Z,973.62
2016-03-14T02:01:44.721Z,973.59
2016-03-14T02:02:44.723Z,973.65
2016-03-14T02:03:44.726Z,973.63
2016-03-14T02:04:44.714Z,973.55
2016-03-14T02:05:44.717Z,973.54
2016-03-14T02:06:44.703Z,973.59
2016-03-14T02:07:44.706Z,973.59
2016-03-14T02:08:44.709Z,973.57
2016-03-14T02:09:44.711Z,973.6
2016-03-14T02:10:44.714Z,973.6
2016-03-14T02:11:44.717Z,973.54
2016-03-14T02:12:44.704Z,973.53
2016-03-14T02:13:44.707Z,973.57
2016-03-14T02:14:44.710Z,973.53
2016-03-14T02:15:44.712Z,973.54
2016-03-14T02:16:44.699Z,973.56
2016-03-14T02:17:44.702Z,973.44
2016-03-14T02:18:44.688Z,973.5
2016-03-14T02:19:44.691Z,973.49
2016-03-14T02:20:44.694Z,973.52
2016-03-14T02:21:44.696Z,973.51
2016-03-14T02:22:44.684Z,973.43
2016-03-14T02:23:44.686Z,973.49
2016-03-14T02:24:44.690Z,973.49
2016-03-14T02:25:44.692Z,973.54
2016-03-14T02:26:44.679Z,973.49
2016-03-14T02:27:44.682Z,973.44
2016-03-14T02:28:44.684Z,973.45
2016-03-14T02:29:44.671Z,973.45
2016-03-14T02:30:44.674Z,973.51
2016-03-14T02:31:44.676Z,973.49
2016-03-14T02:32:44.679Z,973.48
2016-03-14T02:33:44.666Z,973.49
2016-03-14T02:34:44.670Z,973.43
2016-03-14T02:35:44.672Z,973.44
2016-03-14T02:36:44.675Z,973.39
2016-03-14T02:37:44.662Z,973.42
2016-03-14T02:38:44.664Z,973.43
2016-03-14T02:39:44.667Z,973.4
2016-03-14T02:40:44.670Z,973.49
2016-03-14T02:41:44.657Z,973.46
2016-03-14T02:42:44.659Z,973.45
2016-03-14T02:43:44.647Z,973.5
2016-03-14T02:44:44.649Z,973.51
2016-03-14T02:45:44.652Z,973.42
2016-03-14T02:46:44.639Z,973.49
2016-03-14T02:47:44.641Z,973.41
2016-03-14T02:48:44.636Z,973.45
2016-03-14T02:49:44.627Z,973.41
2016-03-14T02:50:44.616Z,973.46
2016-03-14T02:51:44.591Z,973.43
2016-03-14T02:52:44.582Z,973.42
2016-03-14T02:53:44.576Z,973.41
2016-03-14T02:54:44.559Z,973.46
2016-03-14T02:55:44.556Z,973.45
2016-03-14T02:56:44.555Z,973.36
2016-03-14T02:57:44.537Z,973.45
2016-03-14T02:58:44.552Z,973.39
2016-03-14T02:59:44.537Z,973.5
2016-03-14T03:00:44.539Z,973.42
2016-03-14T03:01:44.540Z,973.43
2016-03-14T03:02:44.526Z,973.48
2016-03-14T03:03:44.528Z,973.49
2016-03-14T03:04:44.530Z,973.45
2016-03-14T03:05:44.515Z,973.47
2016-03-14T03:06:44.517Z,973.49
2016-03-14T03:07:44.520Z,973.48
2016-03-14T03:08:44.507Z,973.47
2016-03-14T03:09:44.510Z,973.45
2016-03-14T03:10:44.512Z,973.48
2016-03-14T03:11:44.515Z,973.5
2016-03-14T03:12:44.517Z,973.44
2016-03-14T03:13:44.505Z,973.42
2016-03-14T03:14:44.507Z,973.49
2016-03-14T03:15:44.510Z,973.47
2016-03-14T03:16:44.496Z,973.49
2016-03-14T03:17:44.500Z,973.48
2016-03-14T03:18:44.502Z,973.38
2016-03-14T03:19:44.490Z,973.43
2016-03-14T03:20:44.492Z,973.42
2016-03-14T03:21:44.495Z,973.48
2016-03-14T03:22:44.481Z,973.43
2016-03-14T03:23:44.484Z,973.44
2016-03-14T03:24:44.487Z,973.46
2016-03-14T03:25:44.490Z,973.37
2016-03-14T03:26:44.476Z,973.4
2016-03-14T03:27:44.479Z,973.48
2016-03-14T03:28:44.481Z,973.42
2016-03-14T03:29:44.484Z,973.42
2016-03-14T03:30:44.472Z,973.45
2016-03-14T03:31:44.475Z,973.4
2016-03-14T03:32:44.478Z,973.45
2016-03-14T03:33:44.464Z,973.41
2016-03-14T03:34:44.467Z,973.51
2016-03-14T03:35:44.470Z,973.52
2016-03-14T03:36:44.473Z,973.45
2016-03-14T03:37:44.460Z,973.47
2016-03-14T03:38:44.463Z,973.5
2016-03-14T03:39:44.465Z,973.55
2016-03-14T03:40:44.452Z,973.51
2016-03-14T03:41:44.455Z,973.54
2016-03-14T03:42:44.458Z,973.5
2016-03-14T03:43:44.460Z,973.53
2016-03-14T03:44:44.447Z,973.51
2016-03-14T03:45:44.449Z,973.53
2016-03-14T03:46:44.452Z,973.57
2016-03-14T03:47:44.439Z,973.55
2016-03-14T03:48:44.443Z,973.56
2016-03-14T03:49:44.445Z,973.67
2016-03-14T03:50:44.448Z,973.66
2016-03-14T03:51:44.434Z,973.57
2016-03-14T03:52:44.438Z,973.66
2016-03-14T03:53:44.440Z,973.57
2016-03-14T03:54:44.427Z,973.6
2016-03-14T03:55:44.429Z,973.63
2016-03-14T03:56:44.432Z,973.66
2016-03-14T03:57:44.419Z,973.68
2016-03-14T03:58:44.422Z,973.6
2016-03-14T03:59:44.425Z,973.64
2016-03-14T04:00:44.428Z,973.66
2016-03-14T04:01:44.414Z,973.71
2016-03-14T04:02:44.417Z,973.61
2016-03-14T04:03:44.419Z,973.62
2016-03-14T04:04:44.422Z,973.67
2016-03-14T04:05:44.410Z,973.64
2016-03-14T04:06:44.413Z,973.68
2016-03-14T04:07:44.415Z,973.68
2016-03-14T04:08:44.402Z,973.64
2016-03-14T04:09:44.405Z,973.64
2016-03-14T04:10:44.408Z,973.69
2016-03-14T04:11:44.411Z,973.71
2016-03-14T04:12:44.397Z,973.69
2016-03-14T04:13:44.399Z,973.73
2016-03-14T04:14:44.402Z,973.77
2016-03-14T04:15:44.405Z,973.65
2016-03-14T04:16:44.393Z,973.66
2016-03-14T04:17:44.396Z,973.69
2016-03-14T04:18:44.399Z,973.79
2016-03-14T04:19:44.384Z,973.66
2016-03-14T04:20:44.387Z,973.65
2016-03-14T04:21:44.390Z,973.63
2016-03-14T04:22:44.393Z,973.67
2016-03-14T04:23:44.380Z,973.72
2016-03-14T04:24:44.399Z,973.68
2016-03-14T04:25:44.385Z,973.68
2016-03-14T04:26:44.373Z,973.73
2016-03-14T04:27:44.376Z,973.74
2016-03-14T04:28:44.379Z,973.78
2016-03-14T04:29:44.365Z,973.77
2016-03-14T04:30:44.384Z,973.77
2016-03-14T04:31:44.370Z,973.79
2016-03-14T04:32:44.373Z,973.8
2016-03-14T04:33:44.376Z,973.79
2016-03-14T04:34:44.364Z,973.81
2016-03-14T04:35:44.366Z,973.77
2016-03-14T04:36:44.369Z,973.79
2016-03-14T04:37:44.355Z,973.78
2016-03-14T04:38:44.358Z,973.81
2016-03-14T04:39:44.361Z,973.79
2016-03-14T04:40:44.364Z,973.8
2016-03-14T04:41:44.366Z,973.77
2016-03-14T04:42:44.353Z,973.8
2016-03-14T04:43:44.355Z,973.8
2016-03-14T04:44:44.344Z,973.81
2016-03-14T04:45:44.346Z,973.79
2016-03-14T04:46:44.349Z,973.87
2016-03-14T04:47:44.351Z,973.79
2016-03-14T04:48:44.338Z,973.86
2016-03-14T04:49:44.340Z,973.85
2016-03-14T04:50:44.343Z,973.86
2016-03-14T04:51:44.330Z,973.79
2016-03-14T04:52:44.333Z,973.8
2016-03-14T04:53:44.335Z,973.83
2016-03-14T04:54:44.323Z,973.86
2016-03-14T04:55:44.326Z,973.83
2016-03-14T04:56:44.328Z,973.83
2016-03-14T04:57:44.331Z,973.83
2016-03-14T04:58:44.318Z,973.92
2016-03-14T04:59:44.320Z,973.93
2016-03-14T05:00:44.323Z,973.9
2016-03-14T05:01:44.326Z,973.96
2016-03-14T05:02:44.314Z,973.89
2016-03-14T05:03:44.317Z,973.89
2016-03-14T05:04:44.303Z,973.96
2016-03-14T05:05:44.322Z,973.97
2016-03-14T05:06:44.308Z,974.05
2016-03-14T05:07:44.311Z,974.1
2016-03-14T05:08:44.298Z,973.98
2016-03-14T05:09:44.301Z,973.94
2016-03-14T05:10:44.303Z,974.01
2016-03-14T05:11:44.306Z,973.99
2016-03-14T05:12:44.293Z,974.01
2016-03-14T05:13:44.296Z,973.99
2016-03-14T05:14:44.299Z,974.04
2016-03-14T05:15:44.286Z,974.06
2016-03-14T05:16:44.288Z,974.07
2016-03-14T05:17:44.291Z,974.12
2016-03-14T05:18:44.293Z,974.17
2016-03-14T05:19:44.281Z,974.12
2016-03-14T05:20:44.283Z,974.14
2016-03-14T05:21:44.286Z,974.19
2016-03-14T05:22:44.288Z,974.16
2016-03-14T05:23:44.276Z,974.19
2016-03-14T05:24:44.278Z,974.21
2016-03-14T05:25:44.281Z,974.23
2016-03-14T05:26:44.284Z,974.28
2016-03-14T05:27:44.271Z,974.24
2016-03-14T05:28:44.273Z,974.25
2016-03-14T05:29:44.276Z,974.28
2016-03-14T05:30:44.263Z,974.29
2016-03-14T05:31:44.266Z,974.32
2016-03-14T05:32:44.269Z,974.28
2016-03-14T05:33:44.256Z,974.32
2016-03-14T05:34:44.258Z,974.32
2016-03-14T05:35:44.261Z,974.4
2016-03-14T05:36:44.264Z,974.36
2016-03-14T05:37:44.267Z,974.37
2016-03-14T05:38:44.254Z,974.32
2016-03-14T05:39:44.256Z,974.34
2016-03-14T05:40:44.244Z,974.37
2016-03-14T05:41:44.246Z,974.45
2016-03-14T05:42:44.249Z,974.45
2016-03-14T05:43:44.252Z,974.41
2016-03-14T05:44:44.239Z,974.39
2016-03-14T05:45:44.241Z,974.43
2016-03-14T05:46:44.244Z,974.4
2016-03-14T05:47:44.246Z,974.5
2016-03-14T05:48:44.233Z,974.44
2016-03-14T05:49:44.236Z,974.43
2016-03-14T05:50:44.238Z,974.48
2016-03-14T05:51:44.241Z,974.49
2016-03-14T05:52:44.229Z,974.5
2016-03-14T05:53:44.232Z,974.51
2016-03-14T05:54:44.234Z,974.51
2016-03-14T05:55:44.331Z,974.51
2016-03-14T05:56:44.240Z,974.55
2016-03-14T05:57:44.226Z,974.62
2016-03-14T05:58:44.214Z,974.53
2016-03-14T05:59:44.216Z,974.56
2016-03-14T06:00:44.219Z,974.58
2016-03-14T06:01:44.222Z,974.59
2016-03-14T06:02:44.225Z,974.56
2016-03-14T06:03:44.211Z,974.63
2016-03-14T06:04:44.214Z,974.67
2016-03-14T06:05:44.200Z,974.62
2016-03-14T06:06:44.209Z,974.64
2016-03-14T06:07:44.212Z,974.66
2016-03-14T06:08:44.199Z,974.6
2016-03-14T06:09:44.202Z,974.63
2016-03-14T06:10:44.204Z,974.64
2016-03-14T06:11:44.207Z,974.67
2016-03-14T06:12:44.209Z,974.64
2016-03-14T06:13:44.197Z,974.67
2016-03-14T06:14:44.199Z,974.69
2016-03-14T06:15:44.186Z,974.71
2016-03-14T06:16:44.188Z,974.68
2016-03-14T06:17:44.191Z,974.72
2016-03-14T06:18:44.193Z,974.72
2016-03-14T06:19:44.182Z,974.73
2016-03-14T06:20:44.184Z,974.78
2016-03-14T06:21:44.187Z,974.68
2016-03-14T06:22:44.189Z,974.8
2016-03-14T06:23:44.192Z,974.79
2016-03-14T06:24:44.179Z,974.8
2016-03-14T06:25:44.182Z,974.78
2016-03-14T06:26:44.168Z,974.79
2016-03-14T06:27:44.171Z,974.79
2016-03-14T06:28:44.173Z,974.85
2016-03-14T06:29:44.161Z,974.85
2016-03-14T06:30:44.164Z,974.78
2016-03-14T06:31:44.167Z,974.81
2016-03-14T06:32:44.170Z,974.76
2016-03-14T06:33:44.172Z,974.84
2016-03-14T06:34:44.175Z,974.85
2016-03-14T06:35:44.161Z,974.87
2016-03-14T06:36:44.164Z,974.83
2016-03-14T06:37:44.167Z,974.91
2016-03-14T06:38:44.155Z,974.83
2016-03-14T06:39:44.157Z,974.88
2016-03-14T06:40:44.160Z,974.83
2016-03-14T06:41:44.146Z,974.87
2016-03-14T06:42:44.150Z,974.85
2016-03-14T06:43:44.152Z,974.87
2016-03-14T06:44:44.155Z,974.87
2016-03-14T06:45:44.141Z,974.86
2016-03-14T06:46:44.144Z,974.95
2016-03-14T06:47:44.146Z,974.86
2016-03-14T06:48:44.149Z,974.88
2016-03-14T06:49:44.152Z,974.92
2016-03-14T06:50:44.140Z,974.9
2016-03-14T06:51:44.142Z,974.94
2016-03-14T06:52:44.145Z,974.97
2016-03-14T06:53:44.147Z,974.94
2016-03-14T06:54:44.134Z,974.94
2016-03-14T06:55:44.137Z,974.92
2016-03-14T06:56:44.140Z,974.98
2016-03-14T06:57:44.126Z,974.97
2016-03-14T06:58:44.129Z,974.93
2016-03-14T06:59:44.132Z,975.01
2016-03-14T07:00:44.135Z,975.06
2016-03-14T07:01:44.138Z,975.03
2016-03-14T07:02:44.125Z,975.05
2016-03-14T07:03:44.128Z,975.05
2016-03-14T07:04:44.130Z,975.08
2016-03-14T07:05:44.133Z,974.98
2016-03-14T07:06:44.136Z,974.97
2016-03-14T07:07:44.123Z,975.01
2016-03-14T07:08:44.126Z,975
2016-03-14T07:09:44.128Z,974.99
2016-03-14T07:10:44.116Z,975.04
2016-03-14T07:11:44.118Z,975.03
2016-03-14T07:12:44.121Z,974.99
2016-03-14T07:13:44.123Z,975.02
2016-03-14T07:14:44.127Z,975.08
2016-03-14T07:15:44.113Z,975.14
2016-03-14T07:16:44.116Z,975.03
2016-03-14T07:17:44.118Z,975.08
2016-03-14T07:18:44.122Z,975.1
2016-03-14T07:19:44.124Z,975.06
2016-03-14T07:20:44.127Z,975.12
2016-03-14T07:21:44.113Z,975.1
2016-03-14T07:22:44.116Z,975.1
2016-03-14T07:23:44.118Z,975.09
2016-03-14T07:24:44.122Z,975.15
2016-03-14T07:25:44.109Z,975.13
2016-03-14T07:26:44.112Z,975.15
2016-03-14T07:27:44.114Z,975.23
2016-03-14T07:28:44.117Z,975.27
2016-03-14T07:29:44.119Z,975.16
2016-03-14T07:30:44.106Z,975.15
2016-03-14T07:31:44.109Z,975.1
2016-03-14T07:32:44.112Z,975.22
2016-03-14T07:33:44.099Z,975.18
2016-03-14T07:34:44.101Z,975.14
2016-03-14T07:35:44.104Z,975.15
2016-03-14T07:36:44.107Z,975.21
2016-03-14T07:37:44.110Z,975.22
2016-03-14T07:38:44.112Z,975.18
2016-03-14T07:39:44.099Z,975.17
2016-03-14T07:40:44.102Z,975.19
2016-03-14T07:41:44.105Z,975.21
2016-03-14T07:42:44.108Z,975.19
2016-03-14T07:43:44.095Z,975.18
2016-03-14T07:44:44.097Z,975.19
2016-03-14T07:45:44.100Z,975.2
2016-03-14T07:46:44.102Z,975.28
2016-03-14T07:47:44.105Z,975.24
2016-03-14T07:48:44.108Z,975.22
2016-03-14T07:49:44.096Z,975.26
2016-03-14T07:50:44.098Z,975.39
2016-03-14T07:51:44.101Z,975.3
2016-03-14T07:52:44.104Z,975.28
2016-03-14T07:53:44.091Z,975.24
2016-03-14T07:54:44.093Z,975.32
2016-03-14T07:55:44.096Z,975.31
2016-03-14T07:56:44.098Z,975.3
2016-03-14T07:57:44.085Z,975.35
2016-03-14T07:58:44.087Z,975.26
2016-03-14T07:59:44.091Z,975.44
2016-03-14T08:00:44.093Z,975.3
2016-03-14T08:01:44.096Z,975.29
2016-03-14T08:02:44.098Z,975.36
2016-03-14T08:03:44.086Z,975.28
2016-03-14T08:04:44.089Z,975.34
2016-03-14T08:05:44.092Z,975.31
2016-03-14T08:06:44.091Z,975.34
2016-03-14T08:07:44.094Z,975.34
2016-03-14T08:08:44.096Z,975.3
2016-03-14T08:09:44.100Z,975.28
2016-03-14T08:10:44.086Z,975.32
2016-03-14T08:11:44.089Z,975.31
2016-03-14T08:12:44.075Z,975.29
2016-03-14T08:13:44.078Z,975.36
2016-03-14T08:14:44.080Z,975.38
2016-03-14T08:15:44.083Z,975.37
2016-03-14T08:16:44.086Z,975.3
2016-03-14T08:17:44.089Z,975.35
2016-03-14T08:18:44.091Z,975.4
2016-03-14T08:19:44.079Z,975.38
2016-03-14T08:20:44.081Z,975.42
2016-03-14T08:21:44.084Z,975.5
2016-03-14T08:22:44.087Z,975.44
2016-03-14T08:23:44.074Z,975.45
2016-03-14T08:24:44.076Z,975.49
2016-03-14T08:25:44.079Z,975.45
2016-03-14T08:26:44.082Z,975.44
2016-03-14T08:27:44.085Z,975.5
2016-03-14T08:28:44.072Z,975.43
2016-03-14T08:29:44.075Z,975.58
2016-03-14T08:30:44.077Z,975.51
2016-03-14T08:31:44.080Z,975.51
2016-03-14T08:32:44.083Z,975.48
2016-03-14T08:33:44.086Z,975.52
2016-03-14T08:34:44.072Z,975.53
2016-03-14T08:35:44.075Z,975.56
2016-03-14T08:36:44.078Z,975.56
2016-03-14T08:37:44.080Z,975.49
2016-03-14T08:38:44.067Z,975.52
2016-03-14T08:39:44.070Z,975.49
2016-03-14T08:40:44.073Z,975.51
2016-03-14T08:41:44.076Z,975.58
2016-03-14T08:42:44.078Z,975.59
2016-03-14T08:43:44.081Z,975.56
2016-03-14T08:44:44.084Z,975.5
2016-03-14T08:45:44.071Z,975.54
2016-03-14T08:46:44.074Z,975.56
2016-03-14T08:47:44.076Z,975.54
2016-03-14T08:48:44.079Z,975.57
2016-03-14T08:49:44.066Z,975.58
2016-03-14T08:50:44.069Z,975.57
2016-03-14T08:51:44.071Z,975.53
2016-03-14T08:52:44.074Z,975.56
2016-03-14T08:53:44.061Z,975.63
2016-03-14T08:54:44.063Z,975.57
2016-03-14T08:55:44.066Z,975.58
2016-03-14T08:56:44.069Z,975.62
2016-03-14T08:57:44.071Z,975.65
2016-03-14T08:58:44.059Z,975.58
2016-03-14T08:59:44.062Z,975.53
2016-03-14T09:00:44.065Z,975.58
2016-03-14T09:01:44.067Z,975.62
2016-03-14T09:02:44.070Z,975.6
2016-03-14T09:03:44.072Z,975.63
2016-03-14T09:04:44.059Z,975.63
2016-03-14T09:05:44.062Z,975.61
2016-03-14T09:06:44.081Z,975.6
2016-03-14T09:07:44.067Z,975.66
2016-03-14T09:08:44.070Z,975.62
2016-03-14T09:09:44.072Z,975.57
2016-03-14T09:10:44.075Z,975.6
2016-03-14T09:11:44.063Z,975.65
2016-03-14T09:12:44.065Z,975.63
2016-03-14T09:13:44.068Z,975.59
2016-03-14T09:14:44.071Z,975.66
2016-03-14T09:15:44.058Z,975.65
2016-03-14T09:16:44.060Z,975.63
2016-03-14T09:17:44.063Z,975.69
2016-03-14T09:18:44.065Z,975.61
2016-03-14T09:19:44.053Z,975.56
2016-03-14T09:20:44.055Z,975.55
2016-03-14T09:21:44.058Z,975.65
2016-03-14T09:22:44.060Z,975.58
2016-03-14T09:23:44.063Z,975.59
2016-03-14T09:24:44.065Z,975.59
2016-03-14T09:25:44.054Z,975.53
2016-03-14T09:26:44.056Z,975.62
2016-03-14T09:27:44.059Z,975.66
2016-03-14T09:28:44.061Z,975.54
2016-03-14T09:29:44.064Z,975.61
2016-03-14T09:30:44.067Z,975.6
2016-03-14T09:31:44.053Z,975.6
2016-03-14T09:32:44.073Z,975.58
2016-03-14T09:33:44.059Z,975.62
2016-03-14T09:34:44.062Z,975.59
2016-03-14T09:35:44.064Z,975.67
2016-03-14T09:36:44.051Z,975.6
2016-03-14T09:37:44.054Z,975.68
2016-03-14T09:38:44.057Z,975.63
2016-03-14T09:39:44.059Z,975.65
2016-03-14T09:40:44.062Z,975.6
2016-03-14T09:41:44.065Z,975.6
2016-03-14T09:42:44.053Z,975.64
2016-03-14T09:43:44.055Z,975.65
2016-03-14T09:44:44.058Z,975.62
2016-03-14T09:45:44.061Z,975.65
2016-03-14T09:46:44.063Z,975.62
2016-03-14T09:47:44.050Z,975.6
2016-03-14T09:48:44.052Z,975.66
2016-03-14T09:49:44.055Z,975.56
2016-03-14T09:50:44.058Z,975.61
2016-03-14T09:51:44.060Z,975.63
2016-03-14T09:52:44.064Z,975.53
2016-03-14T09:53:44.066Z,975.45
2016-03-14T09:54:44.054Z,975.57
2016-03-14T09:55:44.056Z,975.52
2016-03-14T09:56:44.059Z,975.52
2016-03-14T09:57:44.061Z,975.51
2016-03-14T09:58:44.064Z,975.49
2016-03-14T09:59:44.067Z,975.47
2016-03-14T10:00:44.054Z,975.55
2016-03-14T10:01:44.057Z,975.54
2016-03-14T10:02:44.059Z,975.55
2016-03-14T10:03:44.062Z,975.56
2016-03-14T10:04:44.065Z,975.47
2016-03-14T10:05:44.051Z,975.49
2016-03-14T10:06:44.059Z,975.46
2016-03-14T10:07:44.050Z,975.46
2016-03-14T10:08:44.070Z,975.43
2016-03-14T10:09:44.056Z,975.38
2016-03-14T10:10:44.059Z,975.4
2016-03-14T10:11:44.061Z,975.45
2016-03-14T10:12:44.064Z,975.37
2016-03-14T10:13:44.052Z,975.34
2016-03-14T10:14:44.055Z,975.41
2016-03-14T10:15:44.057Z,975.38
2016-03-14T10:16:44.060Z,975.37
2016-03-14T10:17:44.062Z,975.31
2016-03-14T10:18:44.065Z,975.36
2016-03-14T10:19:44.052Z,975.33
2016-03-14T10:20:44.054Z,975.36
2016-03-14T10:21:44.058Z,975.3
2016-03-14T10:22:44.060Z,975.36
2016-03-14T10:23:44.063Z,975.36
2016-03-14T10:24:44.065Z,975.42
2016-03-14T10:25:44.053Z,975.39
2016-03-14T10:26:44.056Z,975.32
2016-03-14T10:27:44.058Z,975.37
2016-03-14T10:28:44.062Z,975.31
2016-03-14T10:29:44.064Z,975.41
2016-03-14T10:30:44.067Z,975.33
2016-03-14T10:31:44.053Z,975.31
2016-03-14T10:32:44.056Z,975.28
2016-03-14T10:33:44.059Z,975.33
2016-03-14T10:34:44.062Z,975.3
2016-03-14T10:35:44.064Z,975.31
2016-03-14T10:36:44.066Z,975.26
2016-03-14T10:37:44.069Z,975.31
2016-03-14T10:38:44.056Z,975.2
2016-03-14T10:39:44.059Z,975.23
2016-03-14T10:40:44.061Z,975.24
2016-03-14T10:41:44.064Z,975.23
2016-03-14T10:42:44.067Z,975.22
2016-03-14T10:43:44.070Z,975.21
2016-03-14T10:44:44.072Z,975.19
2016-03-14T10:45:44.075Z,975.25
2016-03-14T10:46:44.078Z,975.24
2016-03-14T10:47:44.080Z,975.17
2016-03-14T10:48:44.068Z,975.21
2016-03-14T10:49:44.071Z,975.17
2016-03-14T10:50:44.057Z,975.18
2016-03-14T10:51:44.060Z,975.16
2016-03-14T10:52:44.062Z,975.11
2016-03-14T10:53:44.065Z,975.08
2016-03-14T10:54:44.068Z,975.15
2016-03-14T10:55:44.070Z,975.03
2016-03-14T10:56:44.074Z,975.07
2016-03-14T10:57:44.060Z,975.05
2016-03-14T10:58:44.063Z,975.07
2016-03-14T10:59:44.065Z,975.1
2016-03-14T11:00:44.084Z,975.08
2016-03-14T11:01:44.072Z,975.06
2016-03-14T11:02:44.059Z,975.07
2016-03-14T11:03:44.062Z,975.08
2016-03-14T11:04:44.065Z,975.1
2016-03-14T11:05:44.068Z,975.07
2016-03-14T11:06:44.070Z,975.03
2016-03-14T11:07:44.073Z,975.03
2016-03-14T11:08:44.076Z,975.05
2016-03-14T11:09:44.078Z,975.08
2016-03-14T11:10:44.065Z,975.06
2016-03-14T11:11:44.067Z,975.02
2016-03-14T11:12:44.070Z,975.05
2016-03-14T11:13:44.073Z,975.01
2016-03-14T11:14:44.076Z,975
2016-03-14T11:15:44.079Z,975.03
2016-03-14T11:16:44.066Z,975
2016-03-14T11:17:44.069Z,975
2016-03-14T11:18:44.071Z,975.02
2016-03-14T11:19:44.074Z,975.02
2016-03-14T11:20:44.077Z,975
2016-03-14T11:21:44.083Z,975.04
2016-03-14T11:22:44.069Z,974.99
2016-03-14T11:23:44.087Z,975
2016-03-14T11:24:44.074Z,975.04
2016-03-14T11:25:44.077Z,975.01
2016-03-14T11:26:44.096Z,974.97
2016-03-14T11:27:44.082Z,975
2016-03-14T11:28:44.085Z,974.99
2016-03-14T11:29:44.088Z,974.91
2016-03-14T11:30:44.090Z,974.9
2016-03-14T11:31:44.078Z,974.89
2016-03-14T11:32:44.080Z,974.94
2016-03-14T11:33:44.083Z,974.93
2016-03-14T11:34:44.086Z,974.94
2016-03-14T11:35:44.088Z,974.92
2016-03-14T11:36:44.091Z,974.91
2016-03-14T11:37:44.078Z,974.86
2016-03-14T11:38:44.096Z,974.88
2016-03-14T11:39:44.099Z,974.93
2016-03-14T11:40:44.086Z,974.91
2016-03-14T11:41:44.105Z,974.94
2016-03-14T11:42:44.092Z,974.89
2016-03-14T11:43:44.094Z,974.92
2016-03-14T11:44:44.097Z,974.9
2016-03-14T11:45:44.100Z,975.04
2016-03-14T11:46:44.103Z,974.91
2016-03-14T11:47:44.089Z,974.9
2016-03-14T11:48:44.092Z,974.93
2016-03-14T11:49:44.111Z,974.91
2016-03-14T11:50:44.098Z,974.89
2016-03-14T11:51:44.100Z,974.9
2016-03-14T11:52:44.103Z,974.92
2016-03-14T11:53:44.105Z,974.87
2016-03-14T11:54:44.101Z,974.89
2016-03-14T11:55:44.079Z,974.9
2016-03-14T11:56:44.196Z,974.87
2016-03-14T11:57:44.064Z,974.9
2016-03-14T11:58:44.063Z,974.84
2016-03-14T11:59:44.060Z,974.86
2016-03-14T12:00:44.059Z,974.85
2016-03-14T12:01:44.058Z,974.87
2016-03-14T12:02:44.057Z,974.86
2016-03-14T12:03:44.041Z,974.84
2016-03-14T12:04:44.042Z,974.83
2016-03-14T12:05:44.043Z,974.84
2016-03-14T12:06:44.045Z,974.84
2016-03-14T12:07:44.047Z,974.79
2016-03-14T12:08:44.048Z,974.86
2016-03-14T12:09:44.050Z,974.79
2016-03-14T12:10:44.037Z,974.83
2016-03-14T12:11:44.070Z,974.79
2016-03-14T12:12:44.042Z,974.78
2016-03-14T12:13:44.043Z,974.76
2016-03-14T12:14:44.046Z,974.74
2016-03-14T12:15:44.048Z,974.81
2016-03-14T12:16:44.051Z,974.82
2016-03-14T12:17:44.053Z,974.79
2016-03-14T12:18:44.055Z,974.84
2016-03-14T12:19:44.058Z,974.89
2016-03-14T12:20:44.060Z,974.85
2016-03-14T12:21:44.047Z,974.82
2016-03-14T12:22:44.049Z,974.81
2016-03-14T12:23:44.053Z,974.86
2016-03-14T12:24:44.055Z,974.8
2016-03-14T12:25:44.058Z,974.81
2016-03-14T12:26:44.076Z,974.82
2016-03-14T12:27:44.063Z,974.79
2016-03-14T12:28:44.065Z,974.79
2016-03-14T12:29:44.069Z,974.84
2016-03-14T12:30:44.072Z,974.85
2016-03-14T12:31:44.059Z,974.83